Terminal Aerodrome Forecast
Issued by NWS

Home | Current Version | Previous Version | Graphics & Text | Print | Product List | Glossary On
Versions: 1 2 3 4 5 6 7 8 9 10 11 12 13 14 15 16 17 18 19 20 21 22 23 24 25 26 27 28 29 30
000
FTUS45 KGGW 260500
TAFOLF
TAF
KOLF 260520Z 2606/2706 VRB04KT P6SM BKN040
      TEMPO 2606/2609 BKN025
     FM261200 VRB06KT P6SM VCSH BKN025
     FM270000 VRB06KT P6SM SCT030 BKN150=

USA.gov is the U.S. government's official web portal to all federal, state and local government web resources and services.